Tropical Cyclones
[Index]
Main Index Home Page Stock Weather Photos Extreme Storms Discussion Storm News and Storm Chasing Reports Tropical Cyclones / Hurricanes / Typhoons Weather Data and Links Wild Fires / Bushfires Weather Observation Techniques Weather Picture Catalogue Tornado Pictures and Reports Stock Video Footage and DVDs for sale
Season 1957-1958 Tropical Cyclone 195758_18 Track Map
Season 1957-1958 Summaries: [BoM-AU] [JTWC-AU] [JTWC-SIO] [JTWC-SPAC] [JTWC-SH]
<<- Previous TC | BoM 1957-1958 Season | Next TC ->>

click for intensity scale information  Lat/long Grid: Show Hide

 Date Labels: Show Hide

Bureau of Meteorology Tropical Cyclone Data

Name: 195758_18
Number: 307 / 195758_18

04 Jun 1958 05:00 UTC to 12 Jun 1958 17:00 UTC

    date/time    lat    long    hPa   cat  kts
1958-06-04 05   11.0   161.5   1005                     
1958-06-04 11   10.5   160.0   1005                     
1958-06-04 14   10.4   160.1   1005                     
1958-06-04 23    9.0   160.2   1004                     
1958-06-05 11    9.6   159.6   1004                     
1958-06-05 13    9.6   159.8   1004                     
1958-06-05 23   10.0   159.9    998                     
1958-06-06 11   10.5   159.5    996                     
1958-06-06 23   13.2   157.0    988    1                
1958-06-07 05   14.1   157.0    988    1                
1958-06-07 11   15.0   157.1    988    1                
1958-06-07 23   19.2   158.3    988    1                
1958-06-08 05   20.5   159.0    988    1                
1958-06-08 11   21.6   159.5    988    1                
1958-06-08 23   22.5   160.5    988    1                
1958-06-09 11   23.3   160.6    990    1                
1958-06-09 23   25.1   160.8    990    1                
1958-06-10 11   26.3   160.4    994    1                
1958-06-10 23   27.9   159.9    994    1                
1958-06-11 11   28.2   161.0    992    1                
1958-06-11 23   28.3   162.0    992    1                
1958-06-12 11   28.8   162.9    988    1                
1958-06-12 17   29.4   163.6    986    1                
Winds are 10-min average.

Tropical cyclone tracks developed by Michael Bath using data from the Bureau of Meteorology and Google Maps.


[Australian Severe Weather index] [Copyright Notice] [Email Contacts] [Search This Site] [Privacy Policy]
Document: tropical_cyclone_195758_18.htm Updated: 30 May 2013